West Haven, CT (06516)

12:58 PM EST on December 12, 2017 (GMT -0500)
Third Avenue Park | | Change Station

Elev 13 ft 41.27 °N, 72.94 °W | Updated 2 minutes ago

Overcast
Overcast
48.6 °F
Feels Like 49 °F
N
1.0
Wind Variable Wind from SE
Gusts 4.0 mph

Today
High -- | Low -- °F
--% Chance of Precip.
Yesterday
High -- | Low -- °F
Precip. -- in
Pressure 29.44 in
Visibility 10.0 miles
Clouds Scattered Clouds 2400 ft
Mostly Cloudy 5500 ft
Overcast 7500 ft
Windchill 49 °F
Dew Point 46 °F
Humidity 90%
Rainfall 0.00 in
Snow Depth Not available.
7:08 AM 4:22 PM
Waning Crescent, 26% visible
METAR KHVN 121753Z 15006KT 10SM SCT024 BKN055 OVC075 10/07 A2944 RMK AO2 SLP970 60002 T01000072 10100 20072 56058
Pressure 29.44 in
Visibility 10.0 miles
Clouds Scattered Clouds 2400 ft
Mostly Cloudy 5500 ft
Overcast 7500 ft
Windchill 49 °F
Dew Point 46 °F
Humidity 90%
Rainfall 0.00 in
Snow Depth Not available.
7:08 AM 4:22 PM
Waning Crescent, 26% visible
METAR KHVN 121753Z 15006KT 10SM SCT024 BKN055 OVC075 10/07 A2944 RMK AO2 SLP970 60002 T01000072 10100 20072 56058

Get Severe Weather Alerts

Thanks for signing up!

Be on the lookout for a verification email in your inbox.

You'll start receiving the daily forecast at 6 AM.

×

10-Day Weather Forecast

Almanac

Astronomy

Dec. 12, 2017 Rise Set
Actual Time
Civil Twilight
Nautical Twilight
Astronomical Twilight
Moon
Length of Visible Light
Length of Day
Tomorrow will be .
, % of the Moon is Illuminated

Today's Extremes

State Highs State Lows

Community

WunderPhotos

Category 6

Welcome to Category 6. This is the collective home for Weather Underground's featured writeups by Dr. Jeff Masters (right), Bob Henson (left), Chris Burt, and other regular contributors.

Nearby

Air Quality

  Air Quality AQ Index Pollutant
Not available.

Snow Depth

Station Depth Elevation

Earthquake Activity

City Distance Mag. Time & Date
Minimum magnitude displayed is 2.5.

Coastal Water Temperatures

Place Temperature

Stations

Nearby Weather Stations

Station Location Temp. Windchill Dew Point Humidity Wind Precip. Elev Updated Type
                   

Watches & Warnings

There are currently no watches in effect.